createdAt,value
2018-11-11T00:01:45.546Z,93.60
2018-11-11T00:04:14.876Z,93.60
2018-11-11T00:06:44.955Z,93.60
2018-11-11T00:09:14.208Z,93.60
2018-11-11T00:11:43.499Z,93.70
2018-11-11T00:14:12.792Z,93.70
2018-11-11T00:16:42.129Z,93.80
2018-11-11T00:19:11.498Z,93.90
2018-11-11T00:21:40.785Z,93.80
2018-11-11T00:24:09.968Z,93.80
2018-11-11T00:26:39.309Z,93.80
2018-11-11T00:29:08.791Z,93.80
2018-11-11T00:31:38.048Z,93.80
2018-11-11T00:34:07.340Z,93.80
2018-11-11T00:36:36.671Z,93.80
2018-11-11T00:39:08.809Z,93.80
2018-11-11T00:41:38.162Z,93.80
2018-11-11T00:44:07.492Z,93.70
2018-11-11T00:46:36.900Z,93.70
2018-11-11T00:49:06.632Z,93.70
2018-11-11T00:51:35.879Z,93.70
2018-11-11T00:54:05.232Z,93.70
2018-11-11T00:56:34.505Z,93.80
2018-11-11T00:59:03.792Z,93.90
2018-11-11T01:01:33.066Z,93.90
2018-11-11T01:04:02.393Z,93.90
2018-11-11T01:06:31.647Z,93.90
2018-11-11T01:09:00.959Z,93.90
2018-11-11T01:11:30.199Z,94.00
2018-11-11T01:13:59.467Z,94.00
2018-11-11T01:16:28.690Z,94.00
2018-11-11T01:18:58.008Z,94.10
2018-11-11T01:21:27.258Z,94.30
2018-11-11T01:23:56.478Z,94.20
2018-11-11T01:26:25.704Z,94.10
2018-11-11T01:28:54.959Z,94.10
2018-11-11T01:31:24.527Z,94.20
2018-11-11T01:33:53.806Z,94.20
2018-11-11T01:36:23.123Z,94.20
2018-11-11T01:38:52.298Z,94.20
2018-11-11T01:41:21.593Z,94.30
2018-11-11T01:43:50.896Z,94.30
2018-11-11T01:46:20.248Z,94.30
2018-11-11T01:48:49.472Z,94.30
2018-11-11T01:51:18.662Z,94.50
2018-11-11T01:53:47.932Z,94.40
2018-11-11T01:56:17.208Z,94.40
2018-11-11T01:58:46.402Z,94.80
2018-11-11T02:01:15.620Z,94.50
2018-11-11T02:03:44.880Z,94.50
2018-11-11T02:06:14.191Z,94.60
2018-11-11T02:08:43.479Z,94.60
2018-11-11T02:11:12.772Z,94.60
2018-11-11T02:13:42.111Z,94.60
2018-11-11T02:16:11.407Z,94.60
2018-11-11T02:18:40.776Z,94.60
2018-11-11T02:21:10.116Z,94.70
2018-11-11T02:23:39.397Z,94.70
2018-11-11T02:26:08.656Z,94.70
2018-11-11T02:28:37.938Z,94.80
2018-11-11T02:31:07.331Z,94.80
2018-11-11T02:33:36.584Z,94.80
2018-11-11T02:36:05.846Z,94.80
2018-11-11T02:38:35.111Z,94.80
2018-11-11T02:41:04.403Z,94.80
2018-11-11T02:43:33.672Z,94.80
2018-11-11T02:46:02.943Z,94.80
2018-11-11T02:48:32.163Z,94.80
2018-11-11T02:51:01.514Z,95.10
2018-11-11T02:53:30.703Z,95.10
2018-11-11T02:55:59.968Z,94.80
2018-11-11T02:58:29.257Z,94.80
2018-11-11T03:00:58.523Z,94.80
2018-11-11T03:03:27.786Z,94.80
2018-11-11T03:05:57.052Z,95.20
2018-11-11T03:08:26.356Z,94.90
2018-11-11T03:10:55.539Z,94.90
2018-11-11T03:13:24.795Z,94.90
2018-11-11T03:15:54.044Z,94.90
2018-11-11T03:18:23.407Z,94.90
2018-11-11T03:20:52.663Z,94.90
2018-11-11T03:23:21.899Z,94.90
2018-11-11T03:25:51.204Z,94.90
2018-11-11T03:28:20.433Z,94.90
2018-11-11T03:30:49.669Z,95.00
2018-11-11T03:33:19.095Z,95.00
2018-11-11T03:35:48.376Z,95.10
2018-11-11T03:38:17.647Z,95.10
2018-11-11T03:40:46.930Z,95.10
2018-11-11T03:43:16.220Z,95.10
2018-11-11T03:45:45.538Z,95.20
2018-11-11T03:48:14.801Z,95.20
2018-11-11T03:50:44.060Z,95.20
2018-11-11T03:53:13.284Z,95.20
2018-11-11T03:55:42.567Z,95.50
2018-11-11T03:58:11.901Z,95.60
2018-11-11T04:00:41.175Z,95.20
2018-11-11T04:03:10.435Z,95.20
2018-11-11T04:05:39.691Z,95.30
2018-11-11T04:08:09.018Z,95.30
2018-11-11T04:10:38.259Z,95.30
2018-11-11T04:13:07.483Z,95.40
2018-11-11T04:15:36.698Z,95.40
2018-11-11T04:18:06.243Z,95.40
2018-11-11T04:20:35.567Z,95.50
2018-11-11T04:23:04.903Z,95.40
2018-11-11T04:25:34.168Z,95.40
2018-11-11T04:28:03.443Z,95.50
2018-11-11T04:30:32.652Z,95.50
2018-11-11T04:33:02.078Z,95.50
2018-11-11T04:35:31.388Z,95.50
2018-11-11T04:38:00.647Z,95.50
2018-11-11T04:40:29.906Z,95.50
2018-11-11T04:42:59.192Z,95.50
2018-11-11T04:45:28.415Z,95.60
2018-11-11T04:47:57.671Z,95.60
2018-11-11T04:50:26.912Z,95.60
2018-11-11T04:52:56.221Z,95.70
2018-11-11T04:55:25.557Z,95.70
2018-11-11T04:57:54.812Z,95.70
2018-11-11T05:00:24.228Z,95.70
2018-11-11T05:02:53.476Z,95.80
2018-11-11T05:05:22.765Z,95.80
2018-11-11T05:07:52.788Z,95.80
2018-11-11T05:10:22.099Z,96.20
2018-11-11T05:12:51.429Z,95.80
2018-11-11T05:15:20.760Z,95.80
2018-11-11T05:17:49.977Z,95.80
2018-11-11T05:20:19.262Z,95.80
2018-11-11T05:22:48.467Z,95.80
2018-11-11T05:25:17.761Z,95.80
2018-11-11T05:27:48.371Z,95.80
2018-11-11T05:30:17.895Z,95.80
2018-11-11T05:32:47.186Z,95.80
2018-11-11T05:35:16.487Z,95.80
2018-11-11T05:37:45.697Z,95.80
2018-11-11T05:40:15.315Z,95.80
2018-11-11T05:42:45.428Z,95.70
2018-11-11T05:45:15.708Z,95.70
2018-11-11T05:47:45.044Z,95.70
2018-11-11T05:50:15.654Z,95.70
2018-11-11T05:52:46.008Z,95.70
2018-11-11T05:55:15.377Z,95.70
2018-11-11T05:57:44.675Z,95.70
2018-11-11T06:00:15.255Z,95.70
2018-11-11T06:02:44.870Z,95.60
2018-11-11T06:05:14.976Z,95.70
2018-11-11T06:07:44.311Z,95.70
2018-11-11T06:10:14.894Z,95.70
2018-11-11T06:12:44.196Z,95.70
2018-11-11T06:15:14.232Z,95.70
2018-11-11T06:17:43.462Z,95.70
2018-11-11T06:20:14.409Z,95.70
2018-11-11T06:22:43.701Z,95.70
2018-11-11T06:25:13.180Z,95.70
2018-11-11T06:27:42.561Z,95.70
2018-11-11T06:30:12.357Z,95.80
2018-11-11T06:32:41.554Z,95.80
2018-11-11T06:35:10.875Z,95.80
2018-11-11T06:37:40.432Z,95.80
2018-11-11T06:40:11.131Z,95.80
2018-11-11T06:42:40.765Z,95.90
2018-11-11T06:45:12.383Z,95.90
2018-11-11T06:47:42.332Z,95.90
2018-11-11T06:50:12.619Z,95.90
2018-11-11T06:52:42.440Z,96.00
2018-11-11T06:55:12.032Z,95.90
2018-11-11T06:57:41.522Z,95.90
2018-11-11T07:00:13.402Z,95.90
2018-11-11T07:02:52.257Z,95.90
2018-11-11T07:05:21.506Z,95.90
2018-11-11T07:07:50.787Z,95.90
2018-11-11T07:10:20.196Z,96.00
2018-11-11T07:12:49.475Z,96.00
2018-11-11T07:15:18.784Z,96.00
2018-11-11T07:17:48.042Z,96.00
2018-11-11T07:20:17.512Z,96.00
2018-11-11T07:22:46.876Z,96.10
2018-11-11T07:25:16.290Z,96.10
2018-11-11T07:27:45.851Z,96.10
2018-11-11T07:30:15.187Z,96.10
2018-11-11T07:32:44.475Z,96.10
2018-11-11T07:35:13.784Z,96.20
2018-11-11T07:37:43.027Z,96.20
2018-11-11T07:40:15.839Z,96.30
2018-11-11T07:42:45.157Z,96.20
2018-11-11T07:45:14.541Z,96.30
2018-11-11T07:47:43.900Z,96.30
2018-11-11T07:50:13.236Z,96.30
2018-11-11T07:52:42.504Z,96.30
2018-11-11T07:55:13.030Z,96.30
2018-11-11T07:57:42.585Z,96.30
2018-11-11T08:00:13.751Z,96.30
2018-11-11T08:02:43.385Z,96.30
2018-11-11T08:05:12.657Z,96.30
2018-11-11T08:07:42.008Z,96.30
2018-11-11T08:10:22.355Z,96.30
2018-11-11T08:12:51.903Z,96.40
2018-11-11T08:15:21.516Z,96.30
2018-11-11T08:17:50.917Z,96.30
2018-11-11T08:20:20.130Z,96.30
2018-11-11T08:22:49.377Z,96.30
2018-11-11T08:25:18.654Z,96.40
2018-11-11T08:27:47.943Z,96.40
2018-11-11T08:30:17.170Z,96.40
2018-11-11T08:32:46.878Z,96.50
2018-11-11T08:35:16.756Z,96.50
2018-11-11T08:37:46.051Z,96.40
2018-11-11T08:40:15.414Z,96.50
2018-11-11T08:42:45.278Z,96.40
2018-11-11T08:45:15.467Z,96.40
2018-11-11T08:47:45.687Z,96.50
2018-11-11T08:50:15.304Z,96.50
2018-11-11T08:52:45.344Z,96.50
2018-11-11T08:55:15.611Z,96.40
2018-11-11T08:57:45.001Z,96.40
2018-11-11T09:00:15.191Z,96.40
2018-11-11T09:02:44.451Z,96.30
2018-11-11T09:05:13.708Z,96.30
2018-11-11T09:07:42.953Z,96.30
2018-11-11T09:10:13.047Z,96.20
2018-11-11T09:12:42.284Z,96.50
2018-11-11T09:15:15.339Z,96.10
2018-11-11T09:17:44.839Z,96.00
2018-11-11T09:20:15.472Z,95.90
2018-11-11T09:22:44.711Z,95.30
2018-11-11T09:25:14.089Z,95.20
2018-11-11T09:27:43.774Z,95.10
2018-11-11T09:30:14.655Z,95.00
2018-11-11T09:32:44.080Z,94.80
2018-11-11T09:35:13.581Z,94.70
2018-11-11T09:37:43.238Z,94.50
2018-11-11T09:40:13.398Z,94.40
2018-11-11T09:42:43.012Z,94.40
2018-11-11T09:45:13.961Z,94.40
2018-11-11T09:47:43.521Z,94.30
2018-11-11T09:50:14.165Z,94.20
2018-11-11T09:52:43.437Z,94.10
2018-11-11T09:55:13.603Z,94.00
2018-11-11T09:57:42.890Z,93.90
2018-11-11T10:00:16.724Z,93.80
2018-11-11T10:02:52.703Z,93.80
2018-11-11T10:05:31.800Z,93.60
2018-11-11T10:08:07.579Z,93.50
2018-11-11T10:10:43.558Z,93.40
2018-11-11T10:13:18.920Z,93.30
2018-11-11T10:15:52.651Z,93.30
2018-11-11T10:18:59.011Z,93.10
2018-11-11T10:21:33.547Z,92.90
2018-11-11T10:24:07.631Z,92.70
2018-11-11T10:26:41.207Z,92.70
2018-11-11T10:29:23.599Z,92.60
2018-11-11T10:32:00.602Z,92.40
2018-11-11T10:34:35.762Z,92.20
2018-11-11T10:37:12.520Z,92.10
2018-11-11T10:39:46.784Z,92.30
2018-11-11T10:42:21.645Z,91.80
2018-11-11T10:44:54.953Z,91.60
2018-11-11T10:47:27.925Z,91.40
2018-11-11T10:50:00.323Z,91.10
2018-11-11T10:52:29.574Z,90.90
2018-11-11T10:54:59.251Z,90.80
2018-11-11T10:57:28.772Z,90.60
2018-11-11T10:59:58.121Z,90.60
2018-11-11T11:02:28.774Z,90.60
2018-11-11T11:05:03.207Z,90.50
2018-11-11T11:07:32.502Z,90.40
2018-11-11T11:10:01.931Z,90.30
2018-11-11T11:12:31.641Z,90.30
2018-11-11T11:15:00.626Z,90.30
2018-11-11T11:17:29.871Z,90.30
2018-11-11T11:19:59.877Z,90.20
2018-11-11T11:22:28.810Z,90.20
2018-11-11T11:24:57.920Z,90.30
2018-11-11T11:27:27.133Z,90.20
2018-11-11T11:29:56.121Z,90.30
2018-11-11T11:32:25.350Z,90.20
2018-11-11T11:34:54.317Z,90.30
2018-11-11T11:37:23.290Z,90.40
2018-11-11T11:39:52.811Z,90.20
2018-11-11T11:42:21.770Z,90.20
2018-11-11T11:44:50.750Z,90.10
2018-11-11T11:47:19.713Z,90.00
2018-11-11T11:49:48.708Z,89.80
2018-11-11T11:52:17.791Z,89.40
2018-11-11T11:54:46.743Z,89.30
2018-11-11T11:57:15.738Z,89.30
2018-11-11T11:59:45.110Z,88.90
2018-11-11T12:02:14.166Z,88.80
2018-11-11T12:04:43.399Z,88.70
2018-11-11T12:07:12.370Z,88.40
2018-11-11T12:09:41.358Z,88.50
2018-11-11T12:12:10.581Z,88.50
2018-11-11T12:14:39.808Z,88.40
2018-11-11T12:17:10.154Z,88.20
2018-11-11T12:19:39.072Z,88.10
2018-11-11T12:22:08.363Z,88.00
2018-11-11T12:24:38.605Z,88.00
2018-11-11T12:27:07.579Z,87.60
2018-11-11T12:29:36.522Z,87.30
2018-11-11T12:32:05.522Z,87.20
2018-11-11T12:34:34.512Z,87.20
2018-11-11T12:37:03.529Z,87.30
2018-11-11T12:39:32.868Z,87.30
2018-11-11T12:42:08.039Z,87.40
2018-11-11T12:44:37.371Z,87.50
2018-11-11T12:47:07.075Z,87.40
2018-11-11T12:49:36.552Z,87.20
2018-11-11T12:52:05.989Z,87.00
2018-11-11T12:54:35.536Z,87.00
2018-11-11T12:57:04.763Z,87.10
2018-11-11T12:59:33.992Z,87.20
2018-11-11T13:02:03.351Z,87.30
2018-11-11T13:04:32.665Z,87.50
2018-11-11T13:07:01.982Z,87.70
2018-11-11T13:09:31.203Z,87.60
2018-11-11T13:12:00.558Z,87.20
2018-11-11T13:14:30.571Z,86.40
2018-11-11T13:16:59.771Z,85.70
2018-11-11T13:19:28.979Z,84.80
2018-11-11T13:21:58.302Z,84.00
2018-11-11T13:24:27.843Z,82.90
2018-11-11T13:26:57.114Z,83.00
2018-11-11T13:29:31.624Z,82.80
2018-11-11T13:32:00.916Z,82.60
2018-11-11T13:34:30.625Z,82.20
2018-11-11T13:37:00.000Z,82.10
2018-11-11T13:39:29.308Z,82.80
2018-11-11T13:41:58.683Z,82.10
2018-11-11T13:44:28.120Z,82.40
2018-11-11T13:46:57.623Z,82.70
2018-11-11T13:49:27.216Z,82.70
2018-11-11T13:51:56.388Z,82.70
2018-11-11T13:54:25.668Z,83.40
2018-11-11T13:56:54.844Z,83.50
2018-11-11T13:59:24.084Z,83.70
2018-11-11T14:01:53.360Z,83.90
2018-11-11T14:04:22.619Z,84.20
2018-11-11T14:06:51.939Z,84.80
2018-11-11T14:09:22.691Z,85.20
2018-11-11T14:11:51.983Z,85.60
2018-11-11T14:14:21.245Z,85.90
2018-11-11T14:16:50.436Z,86.20
2018-11-11T14:19:20.084Z,86.40
2018-11-11T14:21:48.955Z,86.40
2018-11-11T14:24:18.189Z,86.50
2018-11-11T14:26:47.534Z,86.50
2018-11-11T14:29:16.814Z,86.50
2018-11-11T14:31:46.340Z,86.30
2018-11-11T14:34:16.645Z,86.60
2018-11-11T14:36:46.786Z,86.60
2018-11-11T14:39:16.164Z,86.60
2018-11-11T14:41:45.383Z,86.80
2018-11-11T14:44:14.598Z,86.90
2018-11-11T14:46:44.099Z,87.30
2018-11-11T14:49:13.413Z,87.50
2018-11-11T14:51:42.781Z,87.70
2018-11-11T14:54:12.060Z,88.10
2018-11-11T14:56:41.363Z,88.20
2018-11-11T14:59:10.784Z,88.60
2018-11-11T15:01:40.119Z,89.50
2018-11-11T15:04:09.387Z,89.00
2018-11-11T15:06:39.654Z,89.30
2018-11-11T15:09:10.942Z,89.50
2018-11-11T15:11:40.639Z,89.60
2018-11-11T15:14:10.252Z,89.90
2018-11-11T15:16:39.500Z,89.90
2018-11-11T15:19:08.844Z,90.10
2018-11-11T15:21:38.073Z,90.20
2018-11-11T15:24:07.352Z,90.20
2018-11-11T15:26:36.540Z,90.30
2018-11-11T15:29:05.972Z,90.40
2018-11-11T15:31:35.260Z,90.50
2018-11-11T15:34:04.569Z,90.60
2018-11-11T15:36:34.034Z,90.70
2018-11-11T15:39:04.222Z,90.60
2018-11-11T15:41:33.544Z,90.70
2018-11-11T15:44:02.831Z,90.90
2018-11-11T15:46:32.089Z,90.90
2018-11-11T15:49:01.316Z,91.00
2018-11-11T15:51:30.630Z,91.20
2018-11-11T15:53:59.872Z,91.20
2018-11-11T15:56:29.159Z,91.30
2018-11-11T15:58:59.360Z,91.30
2018-11-11T16:01:28.507Z,91.30
2018-11-11T16:03:57.749Z,91.40
2018-11-11T16:06:27.367Z,91.40
2018-11-11T16:08:56.669Z,91.40
2018-11-11T16:11:25.930Z,91.50
2018-11-11T16:13:55.249Z,91.50
2018-11-11T16:16:25.108Z,91.50
2018-11-11T16:18:54.507Z,91.40
2018-11-11T16:21:24.263Z,91.40
2018-11-11T16:23:53.520Z,91.40
2018-11-11T16:26:22.797Z,91.50
2018-11-11T16:28:52.035Z,91.50
2018-11-11T16:31:38.932Z,91.50
2018-11-11T16:34:08.939Z,91.50
2018-11-11T16:36:38.646Z,91.50
2018-11-11T16:39:10.894Z,91.60
2018-11-11T16:41:40.315Z,91.60
2018-11-11T16:44:09.599Z,91.70
2018-11-11T16:46:57.208Z,91.80
2018-11-11T16:49:26.536Z,91.80
2018-11-11T16:51:56.131Z,91.80
2018-11-11T16:54:25.625Z,91.80
2018-11-11T16:56:54.858Z,91.90
2018-11-11T16:59:24.645Z,91.90
2018-11-11T17:01:54.015Z,91.90
2018-11-11T17:04:23.617Z,92.30
2018-11-11T17:07:08.698Z,91.90
2018-11-11T17:09:38.719Z,92.00
2018-11-11T17:12:08.169Z,91.90
2018-11-11T17:14:38.022Z,92.10
2018-11-11T17:17:08.184Z,92.00
2018-11-11T17:19:39.270Z,92.00
2018-11-11T17:22:08.543Z,92.20
2018-11-11T17:24:37.706Z,92.10
2018-11-11T17:27:07.050Z,92.10
2018-11-11T17:29:36.273Z,92.10
2018-11-11T17:32:05.581Z,92.20
2018-11-11T17:34:34.704Z,92.20
2018-11-11T17:37:03.771Z,92.30
2018-11-11T17:39:33.026Z,92.30
2018-11-11T17:42:02.020Z,92.30
2018-11-11T17:44:31.380Z,92.40
2018-11-11T17:47:00.413Z,92.40
2018-11-11T17:49:29.682Z,92.40
2018-11-11T17:52:01.767Z,92.50
2018-11-11T17:54:31.034Z,92.50
2018-11-11T17:57:00.345Z,92.50
2018-11-11T17:59:30.029Z,92.50
2018-11-11T18:01:59.256Z,92.50
2018-11-11T18:04:28.843Z,92.50
2018-11-11T18:06:58.386Z,92.50
2018-11-11T18:09:29.353Z,92.50
2018-11-11T18:11:59.448Z,92.40
2018-11-11T18:14:29.063Z,92.50
2018-11-11T18:16:58.156Z,92.60
2018-11-11T18:19:27.704Z,92.60
2018-11-11T18:21:57.799Z,92.60
2018-11-11T18:24:27.034Z,92.60
2018-11-11T18:27:02.030Z,92.60
2018-11-11T18:29:30.983Z,92.70
2018-11-11T18:32:00.006Z,92.70
2018-11-11T18:34:29.008Z,92.70
2018-11-11T18:36:57.973Z,92.70
2018-11-11T18:39:27.218Z,92.90
2018-11-11T18:41:56.413Z,92.80
2018-11-11T18:44:25.684Z,92.80
2018-11-11T18:46:54.872Z,92.90
2018-11-11T18:49:24.156Z,93.20
2018-11-11T18:51:53.382Z,92.90
2018-11-11T18:54:22.592Z,92.90
2018-11-11T18:56:52.897Z,92.90
2018-11-11T18:59:28.915Z,92.90
2018-11-11T19:01:58.743Z,92.90
2018-11-11T19:04:27.995Z,92.90
2018-11-11T19:06:57.176Z,92.80
2018-11-11T19:09:27.645Z,92.90
2018-11-11T19:11:58.771Z,92.90
2018-11-11T19:17:34.471Z,93.20
2018-11-11T19:20:03.828Z,92.90
2018-11-11T19:22:33.096Z,92.90
2018-11-11T19:25:03.342Z,93.00
2018-11-11T19:27:32.663Z,93.00
2018-11-11T19:30:01.840Z,93.10
2018-11-11T19:32:31.624Z,93.10
2018-11-11T19:35:00.822Z,93.10
2018-11-11T19:37:39.562Z,93.20
2018-11-11T19:40:13.697Z,93.10
2018-11-11T19:42:43.664Z,93.20
2018-11-11T19:45:14.631Z,93.20
2018-11-11T19:47:44.709Z,93.30
2018-11-11T19:50:15.519Z,93.30
2018-11-11T19:52:48.411Z,93.40
2018-11-11T19:55:18.848Z,93.40
2018-11-11T20:03:37.200Z,93.50
2018-11-11T20:06:07.300Z,93.50
2018-11-11T20:08:36.676Z,93.50
2018-11-11T20:11:07.700Z,93.50
2018-11-11T20:13:36.956Z,93.50
2018-11-11T20:16:06.361Z,93.60
2018-11-11T20:18:35.585Z,93.60
2018-11-11T20:21:04.900Z,93.60
2018-11-11T20:23:34.073Z,93.60
2018-11-11T20:26:23.219Z,93.50
2018-11-11T20:28:52.540Z,93.50
2018-11-11T20:31:21.885Z,93.50
2018-11-11T20:33:51.171Z,93.50
2018-11-11T20:36:20.909Z,93.50
2018-11-11T20:38:50.228Z,93.60
2018-11-11T20:41:19.765Z,93.60
2018-11-11T20:43:49.307Z,93.60
2018-11-11T20:46:18.607Z,93.60
2018-11-11T20:48:47.862Z,93.60
2018-11-11T20:51:17.034Z,93.60
2018-11-11T20:53:46.323Z,93.60
2018-11-11T20:56:15.583Z,93.60
2018-11-11T20:58:44.907Z,93.60
2018-11-11T21:01:14.193Z,94.20
2018-11-11T21:03:43.505Z,94.20
2018-11-11T21:06:12.811Z,94.20
2018-11-11T21:08:42.323Z,94.20
2018-11-11T21:11:11.801Z,94.30
2018-11-11T21:13:41.165Z,94.30
2018-11-11T21:16:10.475Z,94.30
2018-11-11T21:18:39.912Z,94.30
2018-11-11T21:21:09.152Z,94.30
2018-11-11T21:23:38.406Z,94.30
2018-11-11T21:26:07.596Z,94.30
2018-11-11T21:28:36.840Z,94.30
2018-11-11T21:31:09.967Z,94.30
2018-11-11T21:33:39.791Z,94.30
2018-11-11T21:36:09.076Z,94.40
2018-11-11T21:38:38.372Z,94.30
2018-11-11T21:41:08.112Z,94.30
2018-11-11T21:43:37.336Z,94.30
2018-11-11T21:46:07.009Z,94.30
2018-11-11T21:48:36.315Z,94.30
2018-11-11T21:51:06.271Z,94.30
2018-11-11T21:53:36.980Z,94.30
2018-11-11T21:56:06.838Z,94.30
2018-11-11T21:58:36.138Z,94.30
2018-11-11T22:01:05.964Z,94.20
2018-11-11T22:03:35.255Z,94.10
2018-11-11T22:06:04.467Z,94.10
2018-11-11T22:08:33.855Z,94.00
2018-11-11T22:11:04.326Z,93.90
2018-11-11T22:13:33.719Z,93.80
2018-11-11T22:16:03.020Z,93.80
2018-11-11T22:18:32.243Z,93.80
2018-11-11T22:21:01.452Z,93.70
2018-11-11T22:23:30.804Z,93.70
2018-11-11T22:26:00.674Z,93.70
2018-11-11T22:28:29.878Z,93.70
2018-11-11T22:30:59.401Z,93.80
2018-11-11T22:33:28.650Z,93.80
2018-11-11T22:35:57.966Z,93.80
2018-11-11T22:38:27.316Z,93.80
2018-11-11T22:40:56.564Z,93.90
2018-11-11T22:43:25.921Z,94.00
2018-11-11T22:45:55.148Z,94.10
2018-11-11T22:48:24.444Z,94.40
2018-11-11T22:50:53.747Z,94.00
2018-11-11T22:53:22.927Z,94.00
2018-11-11T22:55:52.143Z,94.00
2018-11-11T22:58:21.319Z,94.10
2018-11-11T23:00:55.628Z,94.10
2018-11-11T23:03:24.912Z,94.20
2018-11-11T23:05:54.707Z,94.20
2018-11-11T23:08:24.031Z,94.20
2018-11-11T23:10:53.277Z,94.20
2018-11-11T23:13:22.437Z,94.20
2018-11-11T23:15:51.693Z,94.30
2018-11-11T23:18:20.965Z,94.30
2018-11-11T23:20:50.185Z,94.30
2018-11-11T23:23:19.507Z,94.10
2018-11-11T23:25:48.742Z,94.30
2018-11-11T23:28:17.974Z,94.40
2018-11-11T23:30:47.231Z,94.40
2018-11-11T23:33:17.875Z,94.40
2018-11-11T23:35:47.104Z,94.40
2018-11-11T23:38:16.300Z,94.40
2018-11-11T23:40:45.594Z,94.40
2018-11-11T23:43:14.860Z,94.50
2018-11-11T23:45:44.210Z,94.50
2018-11-11T23:48:13.504Z,94.50
2018-11-11T23:50:42.728Z,94.60
2018-11-11T23:53:11.918Z,94.70
2018-11-11T23:55:41.209Z,94.70
2018-11-11T23:58:10.339Z,94.70
